Time;durP1;ratioP1;P1;durP2;ratioP2;P2;SDS_P1;SDS_P2;PMS_P1;PMS_P2;Temp;Humidity;BMP_temperature;BMP_pressure;BME280_temperature;BME280_humidity;BME280_pressure;Samples;Min_cycle;Max_cycle;Signal;HPM_P1;HPM_P2
2022/11/01 00:01:30;;;;;;;4.25;1.52;;;;;;;20.97;33.56;96296.75;5090171;28;20197;-83
2022/11/01 00:03:57;;;;;;;1.65;1.10;;;;;;;21.20;32.17;96286.81;5086914;28;20221;-83
2022/11/01 00:06:24;;;;;;;3.30;1.40;;;;;;;21.19;33.08;96296.16;5078715;28;20200;-83
2022/11/01 00:08:51;;;;;;;4.63;1.48;;;;;;;21.00;33.61;96291.50;5082989;28;20259;-83
2022/11/01 00:11:19;;;;;;;3.30;1.40;;;;;;;20.74;34.48;96285.56;5090787;28;20271;-83
2022/11/01 00:13:50;;;;;;;4.53;1.60;;;;;;;20.69;34.30;96291.09;5089877;28;20301;-83
2022/11/01 00:16:19;;;;;;;5.20;1.30;;;;;;;20.77;33.64;96276.72;5084788;28;20209;-83
2022/11/01 00:18:46;;;;;;;5.78;1.73;;;;;;;20.98;33.43;96260.78;5082879;28;20240;-83
2022/11/01 00:21:14;;;;;;;3.22;1.33;;;;;;;20.98;33.57;96266.25;5086550;28;20228;-83
2022/11/01 00:23:41;;;;;;;4.13;1.40;;;;;;;21.09;32.92;96280.66;5085051;28;20202;-83
2022/11/01 00:26:13;;;;;;;3.70;1.40;;;;;;;20.93;34.03;96271.81;5088768;28;20201;-83
2022/11/01 00:28:40;;;;;;;2.08;1.40;;;;;;;20.70;35.33;96262.56;5088616;28;20223;-83
2022/11/01 00:31:09;;;;;;;4.80;1.50;;;;;;;20.67;34.32;96284.31;5076578;28;20216;-83
2022/11/01 00:33:37;;;;;;;4.10;1.30;;;;;;;20.96;33.44;96260.25;5079855;28;20206;-83
2022/11/01 00:36:05;;;;;;;1.92;1.23;;;;;;;20.94;33.63;96270.72;5090042;28;20235;-83
2022/11/01 00:38:32;;;;;;;4.65;1.52;;;;;;;20.98;33.64;96271.75;5087037;28;20193;-83
2022/11/01 00:41:01;;;;;;;6.95;1.70;;;;;;;21.05;32.76;96272.19;5088697;28;20208;-83
2022/11/01 00:43:28;;;;;;;3.72;1.48;;;;;;;21.14;32.79;96284.13;5084777;28;20206;-83
2022/11/01 00:45:55;;;;;;;4.82;1.42;;;;;;;21.09;33.00;96284.22;5084795;28;20201;-83
2022/11/01 00:48:24;;;;;;;3.40;1.33;;;;;;;21.23;32.64;96269.75;5081121;28;20220;-83
2022/11/01 00:50:51;;;;;;;4.53;1.40;;;;;;;21.25;32.70;96275.75;5081363;28;20232;-83
2022/11/01 00:53:18;;;;;;;3.72;1.45;;;;;;;21.23;32.17;96277.97;5088482;28;20200;-83
2022/11/01 00:55:45;;;;;;;1.83;1.38;;;;;;;21.31;32.71;96280.03;5085352;28;20201;-82
2022/11/01 00:58:12;;;;;;;5.18;1.50;;;;;;;21.20;32.98;96262.09;5081691;28;20196;-83
2022/11/01 01:00:39;;;;;;;3.88;1.42;;;;;;;21.02;33.75;96266.47;5089234;28;20232;-83
2022/11/01 01:03:07;;;;;;;3.42;1.40;;;;;;;21.05;33.27;96277.69;5079302;28;20204;-82
2022/11/01 01:05:36;;;;;;;3.35;1.45;;;;;;;21.01;33.16;96251.94;5080142;28;20231;-83
2022/11/01 01:08:03;;;;;;;2.25;1.48;;;;;;;21.13;32.30;96257.78;5083068;28;20244;-83
2022/11/01 01:10:30;;;;;;;3.30;1.60;;;;;;;21.05;32.75;96260.38;5089903;28;20199;-83
2022/11/01 01:12:57;;;;;;;3.67;1.70;;;;;;;20.89;34.38;96245.28;5079678;28;20202;-83
2022/11/01 01:15:25;;;;;;;3.65;1.70;;;;;;;20.97;33.87;96256.41;5106376;28;20549;-83
2022/11/01 01:17:52;;;;;;;6.60;1.83;;;;;;;21.09;33.31;96267.75;5083487;28;20201;-83
2022/11/01 01:20:20;;;;;;;3.63;1.50;;;;;;;21.11;33.50;96253.69;5082495;28;20225;-83
2022/11/01 01:22:48;;;;;;;3.05;1.67;;;;;;;21.06;33.50;96242.81;5084966;28;20200;-83
2022/11/01 01:25:16;;;;;;;4.95;1.48;;;;;;;21.00;33.85;96255.00;5086435;28;20205;-83
2022/11/01 01:27:43;;;;;;;7.40;1.75;;;;;;;20.94;34.08;96236.94;5086167;28;20219;-82
2022/11/01 01:30:11;;;;;;;5.15;1.90;;;;;;;21.11;32.62;96261.94;5082428;28;20213;-83
2022/11/01 01:32:41;;;;;;;7.93;1.48;;;;;;;21.17;32.98;96257.19;5079943;28;20205;-83
2022/11/01 01:35:09;;;;;;;7.30;2.13;;;;;;;21.09;33.48;96251.28;5084548;28;20277;-83
2022/11/01 01:37:36;;;;;;;3.47;1.58;;;;;;;21.10;33.87;96263.84;5086191;28;20200;-83
2022/11/01 01:40:07;;;;;;;4.35;1.75;;;;;;;21.06;33.21;96251.03;5087090;28;20205;-83
2022/11/01 01:42:36;;;;;;;4.05;1.40;;;;;;;21.14;33.09;96247.63;5085258;28;20213;-82
2022/11/01 01:45:27;;;;;;;3.70;1.60;;;;;;;21.05;34.23;96249.41;5080711;28;20193;-83
2022/11/01 01:47:56;;;;;;;3.13;1.77;;;;;;;20.94;34.08;96236.94;5078304;28;20204;-83
2022/11/01 01:50:28;;;;;;;5.85;1.60;;;;;;;20.98;33.52;96238.00;5084645;28;20200;-83
2022/11/01 01:53:02;;;;;;;4.20;1.52;;;;;;;21.10;33.42;96233.66;5094254;28;20217;-83
2022/11/01 01:55:35;;;;;;;2.53;1.30;;;;;;;20.96;33.95;96230.06;5079612;28;20204;-82
2022/11/01 01:58:02;;;;;;;4.97;1.80;;;;;;;20.98;33.73;96229.75;5084639;28;20295;-82
2022/11/01 02:00:29;;;;;;;3.25;1.77;;;;;;;21.04;33.77;96232.13;5089479;28;20251;-82
2022/11/01 02:02:56;;;;;;;3.15;1.50;;;;;;;21.05;33.49;96222.78;5086882;28;20210;-83
2022/11/01 02:05:33;;;;;;;2.22;1.50;;;;;;;21.09;33.61;96245.78;5085918;28;20213;-83
2022/11/01 02:08:00;;;;;;;3.97;1.70;;;;;;;21.08;33.75;96230.41;5086439;28;20213;-83
2022/11/01 02:10:30;;;;;;;3.45;1.70;;;;;;;21.03;34.05;96219.50;5086614;28;20220;-83
2022/11/01 02:12:58;;;;;;;3.50;1.60;;;;;;;20.91;34.44;96210.13;5082577;28;20209;-83
2022/11/01 02:15:31;;;;;;;3.00;1.60;;;;;;;20.90;34.22;96225.78;5090346;28;20226;-83
2022/11/01 02:18:13;;;;;;;3.50;1.55;;;;;;;20.93;33.67;96225.16;5089223;28;20212;-83
2022/11/01 02:21:02;;;;;;;3.35;1.40;;;;;;;20.89;34.44;96226.06;5082458;28;20201;-83
2022/11/01 02:23:57;;;;;;;2.97;1.40;;;;;;;20.89;33.94;96221.41;5084760;28;20344;-83
2022/11/01 02:26:57;;;;;;;5.07;1.52;;;;;;;20.93;33.77;96203.19;5085375;28;20240;-83
2022/11/01 02:30:00;;;;;;;4.97;1.70;;;;;;;21.11;33.26;96220.75;5081067;28;20221;-83
2022/11/01 02:32:44;;;;;;;3.00;1.50;;;;;;;21.14;33.15;96209.19;5067172;28;20212;-83
2022/11/01 02:35:17;;;;;;;5.65;1.98;;;;;;;21.20;32.96;96202.50;5074506;28;20225;-83
2022/11/01 02:37:51;;;;;;;2.58;1.33;;;;;;;21.09;33.68;96215.59;5086468;28;20207;-83
2022/11/01 02:40:27;;;;;;;4.63;1.70;;;;;;;21.00;33.90;96222.88;5083394;28;20272;-83
2022/11/01 02:43:01;;;;;;;5.50;1.45;;;;;;;21.05;33.23;96210.97;5092593;28;20291;-83
2022/11/01 02:45:34;;;;;;;4.80;1.70;;;;;;;21.04;33.08;96182.72;5083311;28;20290;-83
2022/11/01 02:48:04;;;;;;;4.13;1.98;;;;;;;21.05;33.44;96195.31;5081660;28;20299;-83
2022/11/01 02:50:36;;;;;;;4.32;1.70;;;;;;;21.10;32.78;96203.47;5085601;28;20209;-83
2022/11/01 02:53:05;;;;;;;4.75;1.60;;;;;;;21.14;32.90;96210.00;5086378;28;20250;-83
2022/11/01 02:55:33;;;;;;;3.78;1.33;;;;;;;21.06;33.56;96207.13;5082675;28;20200;-83
2022/11/01 02:58:06;;;;;;;3.15;1.58;;;;;;;21.01;33.13;96193.50;5089182;28;20223;-83
2022/11/01 03:00:34;;;;;;;5.25;1.60;;;;;;;21.09;32.93;96226.56;5081226;28;20287;-83
2022/11/01 03:03:11;;;;;;;4.72;1.50;;;;;;;21.12;32.80;96228.69;5084622;28;20203;-83
2022/11/01 03:05:51;;;;;;;2.38;1.63;;;;;;;21.23;32.43;96229.38;5083712;28;20246;-83
2022/11/01 03:08:23;;;;;;;2.85;1.55;;;;;;;21.25;32.21;96234.56;5083204;28;20201;-83
2022/11/01 03:10:57;;;;;;;5.13;1.70;;;;;;;21.17;32.31;96237.97;5077608;28;20229;-82
2022/11/01 03:13:35;;;;;;;6.30;1.83;;;;;;;21.12;31.80;96242.41;5072588;28;20308;-83
2022/11/01 03:16:20;;;;;;;3.45;1.55;;;;;;;21.30;31.31;96240.78;5085454;28;20202;-83
2022/11/01 03:19:01;;;;;;;5.38;1.55;;;;;;;21.31;31.57;96231.44;5083462;28;20254;-83
2022/11/01 03:21:32;;;;;;;4.07;1.40;;;;;;;21.39;31.39;96262.88;5083014;28;20200;-83
2022/11/01 03:24:06;;;;;;;5.18;1.52;;;;;;;21.40;31.66;96272.75;5080532;28;20213;-83
2022/11/01 03:26:35;;;;;;;3.83;1.88;;;;;;;21.34;31.59;96277.53;5098353;28;20208;-83
2022/11/01 03:29:07;;;;;;;3.33;2.00;;;;;;;21.27;31.42;96279.00;5085442;28;20217;-83
2022/11/01 03:31:38;;;;;;;2.85;1.50;;;;;;;21.32;31.12;96282.50;5085466;28;20297;-83
2022/11/01 03:34:12;;;;;;;4.60;1.73;;;;;;;21.25;31.99;96295.81;5082570;28;20209;-83
2022/11/01 03:36:43;;;;;;;6.43;3.35;;;;;;;20.92;45.93;96310.56;5079149;28;20508;-83
2022/11/01 03:39:17;;;;;;;8.02;3.70;;;;;;;19.65;56.92;96292.88;5077858;28;20262;-83
2022/11/01 03:41:49;;;;;;;5.38;3.70;;;;;;;19.07;60.44;96302.94;5081220;28;20192;-83
2022/11/01 03:44:17;;;;;;;8.70;3.88;;;;;;;18.53;66.27;96298.34;5086775;28;20211;-83
2022/11/01 03:46:44;;;;;;;7.43;3.40;;;;;;;18.19;68.31;96286.47;5083697;28;20207;-83
2022/11/01 03:49:16;;;;;;;6.40;3.53;;;;;;;17.97;70.54;96279.44;5079946;28;20292;-83
2022/11/01 03:51:43;;;;;;;11.77;4.03;;;;;;;17.88;72.59;96297.50;5080847;28;20255;-83
2022/11/01 03:54:10;;;;;;;7.17;4.07;;;;;;;17.68;75.73;96270.25;5085757;28;20197;-83
2022/11/01 03:56:39;;;;;;;7.80;3.87;;;;;;;17.57;79.18;96291.28;5080317;28;20212;-83
2022/11/01 03:59:06;;;;;;;15.57;4.83;;;;;;;17.26;81.32;96293.22;5085250;28;20205;-82
2022/11/01 04:01:34;;;;;;;8.87;4.20;;;;;;;17.15;82.11;96301.69;5092458;28;20201;-82
2022/11/01 04:04:01;;;;;;;8.57;4.07;;;;;;;17.14;82.89;96300.84;5086210;28;20205;-82
2022/11/01 04:06:30;;;;;;;10.43;4.00;;;;;;;17.01;83.20;96304.13;5081458;28;20264;-82
2022/11/01 04:08:57;;;;;;;12.23;4.37;;;;;;;17.03;85.23;96319.13;5086665;28;20216;-83
2022/11/01 04:11:24;;;;;;;10.00;4.57;;;;;;;16.91;86.72;96334.94;5082551;28;20210;-82
2022/11/01 04:13:51;;;;;;;11.40;4.50;;;;;;;16.91;86.82;96325.94;5085231;28;20193;-82
2022/11/01 04:21:49;;;;;;;11.37;4.40;;;;;;;16.88;89.43;96329.19;5088876;28;20227;-82
2022/11/01 04:24:19;;;;;;;8.97;4.90;;;;;;;16.78;89.89;96331.91;5089086;28;20204;-82
2022/11/01 04:26:47;;;;;;;8.33;4.37;;;;;;;16.74;89.54;96341.72;5088575;28;20201;-83
2022/11/01 04:29:14;;;;;;;11.23;4.63;;;;;;;16.68;90.39;96331.88;5086079;28;20240;-82
2022/11/01 04:31:41;;;;;;;9.43;4.50;;;;;;;16.63;91.02;96335.41;5085295;28;20201;-83
2022/11/01 04:34:08;;;;;;;7.57;4.53;;;;;;;16.54;92.06;96346.00;5088596;28;20204;-82
2022/11/01 04:36:38;;;;;;;12.87;4.30;;;;;;;16.39;92.89;96329.59;5085839;28;20241;-82
2022/11/01 04:39:07;;;;;;;11.27;5.10;;;;;;;16.39;92.88;96323.31;5088734;28;20233;-82
2022/11/01 04:41:34;;;;;;;10.17;4.30;;;;;;;16.48;92.80;96333.44;5080228;28;20217;-82
2022/11/01 04:44:01;;;;;;;7.90;4.50;;;;;;;16.47;93.20;96331.81;5082733;28;20201;-82
2022/11/01 04:46:30;;;;;;;7.90;4.43;;;;;;;16.43;93.57;96341.59;5092105;28;20201;-82
2022/11/01 04:48:57;;;;;;;9.93;4.10;;;;;;;16.50;93.27;96355.78;5079033;28;20229;-82
2022/11/01 04:51:24;;;;;;;12.57;4.20;;;;;;;16.44;92.58;96345.13;5075443;28;20202;-82
2022/11/01 04:53:51;;;;;;;7.37;4.57;;;;;;;16.48;92.02;96349.81;5083302;28;20200;-82
2022/11/01 04:56:20;;;;;;;10.93;4.67;;;;;;;16.56;91.19;96362.91;5090435;28;20200;-82
2022/11/01 04:58:47;;;;;;;12.10;4.23;;;;;;;16.50;91.38;96349.53;5082217;28;20223;-82
2022/11/01 05:01:14;;;;;;;10.80;4.23;;;;;;;16.57;91.35;96370.00;5081382;28;20206;-82
2022/11/01 05:03:41;;;;;;;11.50;4.13;;;;;;;16.44;91.63;96365.03;5091667;28;20193;-82
2022/11/01 05:06:09;;;;;;;9.40;4.73;;;;;;;16.46;92.49;96390.13;5087963;28;20220;-82
2022/11/01 05:08:36;;;;;;;15.03;5.23;;;;;;;16.36;92.73;96379.16;5089517;28;20216;-82
2022/11/01 05:11:03;;;;;;;7.83;4.03;;;;;;;16.41;92.32;96387.38;5087276;28;20287;-83
2022/11/01 05:13:31;;;;;;;10.00;4.77;;;;;;;16.44;92.66;96389.56;5085540;28;20219;-82
2022/11/01 05:16:02;;;;;;;11.97;3.83;;;;;;;16.68;87.82;96400.03;5090745;28;20193;-82
2022/11/01 05:18:29;;;;;;;7.07;3.80;;;;;;;16.91;83.93;96392.22;5085925;28;20230;-82
2022/11/01 05:20:57;;;;;;;8.83;3.70;;;;;;;17.12;82.56;96403.16;5075408;28;20201;-82
2022/11/01 05:23:26;;;;;;;7.30;3.83;;;;;;;17.34;81.36;96418.22;5079084;28;20213;-82
2022/11/01 05:25:54;;;;;;;9.33;3.50;;;;;;;17.49;80.83;96424.78;5083677;28;20216;-82
2022/11/01 05:28:22;;;;;;;12.90;4.10;;;;;;;17.48;80.92;96425.84;5089010;28;20208;-83
2022/11/01 05:30:50;;;;;;;10.07;4.10;;;;;;;17.52;81.07;96429.69;5089997;28;20224;-82
2022/11/01 05:33:17;;;;;;;11.33;4.13;;;;;;;17.38;81.86;96415.75;5083938;28;20205;-82
2022/11/01 05:35:44;;;;;;;11.37;3.83;;;;;;;17.39;82.44;96423.66;5078991;28;20229;-82
2022/11/01 05:38:11;;;;;;;11.33;4.20;;;;;;;17.38;83.09;96430.22;5084594;28;20213;-83
2022/11/01 05:40:38;;;;;;;14.70;4.20;;;;;;;17.30;83.80;96436.22;5087261;28;20283;-82
2022/11/01 05:43:06;;;;;;;7.77;3.73;;;;;;;17.34;82.80;96445.50;5086829;28;20228;-82
2022/11/01 05:45:33;;;;;;;8.97;3.93;;;;;;;17.35;82.98;96454.53;5083820;28;20217;-82
2022/11/01 05:48:08;;;;;;;7.23;3.70;;;;;;;17.36;83.21;96465.13;5086514;28;20339;-82
2022/11/01 05:50:35;;;;;;;9.50;3.97;;;;;;;17.34;84.31;96466.53;5075263;28;20225;-82
2022/11/01 05:53:06;;;;;;;10.57;3.90;;;;;;;17.29;85.37;96463.78;5088118;28;20201;-82
2022/11/01 05:55:34;;;;;;;8.10;4.10;;;;;;;17.24;85.82;96471.97;5087633;28;20193;-82
2022/11/01 05:58:02;;;;;;;9.67;4.10;;;;;;;17.20;86.07;96471.66;5089325;28;20204;-82
2022/11/01 06:00:29;;;;;;;9.40;3.90;;;;;;;17.23;86.07;96492.97;5086391;28;20205;-82
2022/11/01 06:02:57;;;;;;;11.40;4.60;;;;;;;17.25;86.51;96501.72;5086271;28;20204;-82
2022/11/01 06:05:26;;;;;;;9.87;3.73;;;;;;;17.13;86.67;96492.94;5085625;28;20201;-82
2022/11/01 06:07:53;;;;;;;9.90;4.53;;;;;;;17.10;86.93;96518.00;5078276;28;20197;-82
2022/11/01 06:10:20;;;;;;;9.20;4.10;;;;;;;17.10;88.30;96525.41;5072240;28;20217;-82
2022/11/01 06:12:47;;;;;;;8.10;4.10;;;;;;;17.08;89.07;96520.22;5101118;28;20193;-82
2022/11/01 06:15:15;;;;;;;7.10;4.07;;;;;;;16.97;90.72;96521.25;5081996;28;20205;-82
2022/11/01 06:17:42;;;;;;;9.57;4.13;;;;;;;16.92;91.65;96534.88;5080036;28;20276;-82
2022/11/01 06:20:10;;;;;;;9.00;3.67;;;;;;;16.84;91.49;96536.16;5073577;28;20280;-82
2022/11/01 06:22:39;;;;;;;15.20;4.87;;;;;;;16.82;92.90;96530.19;5086568;28;20201;-82
2022/11/01 06:25:07;;;;;;;9.97;4.00;;;;;;;16.84;93.67;96527.19;5081363;28;20209;-83
2022/11/01 06:27:35;;;;;;;8.63;3.77;;;;;;;16.78;94.47;96536.41;5082770;28;20274;-82
2022/11/01 06:30:01;;;;;;;8.80;3.83;;;;;;;16.66;95.48;96530.38;5080643;28;20209;-82
2022/11/01 06:32:28;;;;;;;9.57;4.33;;;;;;;16.56;97.15;96533.81;5083065;28;20208;-82
2022/11/01 06:34:55;;;;;;;9.93;4.30;;;;;;;16.57;97.84;96558.09;5084516;28;20233;-83
2022/11/01 06:37:23;;;;;;;9.10;4.20;;;;;;;16.52;96.85;96547.16;5079449;28;20205;-82
2022/11/01 06:39:51;;;;;;;13.40;4.17;;;;;;;16.56;96.80;96553.72;5082492;28;20254;-82
2022/11/01 06:42:18;;;;;;;10.97;4.70;;;;;;;16.49;97.96;96558.59;5080339;28;20205;-82
2022/11/01 06:44:45;;;;;;;8.70;4.03;;;;;;;16.41;98.78;96550.91;5081129;28;20230;-82
2022/11/01 06:47:12;;;;;;;12.90;4.17;;;;;;;16.42;98.05;96557.97;5085558;28;20295;-82
2022/11/01 06:49:39;;;;;;;8.30;3.77;;;;;;;16.52;98.01;96579.84;5073359;28;20216;-82
2022/11/01 06:52:06;;;;;;;12.90;4.23;;;;;;;16.49;97.62;96569.50;5083052;28;20489;-82
2022/11/01 06:54:34;;;;;;;9.10;3.80;;;;;;;16.56;98.00;96575.53;5082329;28;20207;-82
2022/11/01 06:57:03;;;;;;;8.47;3.80;;;;;;;16.49;98.33;96565.94;5080161;28;20220;-82
2022/11/01 06:59:30;;;;;;;7.03;3.80;;;;;;;16.53;98.37;96569.78;5084185;28;20444;-82
2022/11/01 07:01:57;;;;;;;8.37;4.37;;;;;;;16.56;98.26;96581.00;5082547;28;20204;-82
2022/11/01 07:04:26;;;;;;;9.27;3.73;;;;;;;16.60;98.26;96582.09;5083196;28;20196;-82
2022/11/01 07:06:53;;;;;;;7.57;4.03;;;;;;;16.50;99.02;96571.13;5088824;28;20288;-83
2022/11/01 07:09:20;;;;;;;11.43;4.53;;;;;;;16.55;99.13;96595.69;5085033;28;20225;-82
2022/11/01 07:11:48;;;;;;;8.87;4.00;;;;;;;16.44;99.60;96588.53;5084400;28;20197;-82
2022/11/01 07:14:16;;;;;;;12.90;3.70;;;;;;;16.44;99.57;96582.25;5082186;28;20197;-82
2022/11/01 07:16:43;;;;;;;9.00;3.40;;;;;;;16.49;99.91;96595.94;5084599;28;20212;-82
2022/11/01 07:19:10;;;;;;;7.83;3.93;;;;;;;16.42;100.00;96589.84;5080118;28;20237;-82
2022/11/01 07:21:38;;;;;;;11.77;4.30;;;;;;;16.41;100.00;96594.50;5077153;28;20255;-82
2022/11/01 07:24:08;;;;;;;9.30;3.97;;;;;;;16.38;100.00;96589.56;5075785;28;20201;-82
2022/11/01 07:26:35;;;;;;;13.10;4.37;;;;;;;16.38;100.00;96588.75;5080321;28;20214;-82
2022/11/01 07:29:02;;;;;;;16.20;7.70;;;;;;;16.44;100.00;96601.31;5079675;28;20200;-82
2022/11/01 07:31:32;;;;;;;11.37;5.90;;;;;;;16.43;100.00;96605.94;5082626;28;20291;-83
2022/11/01 07:34:00;;;;;;;8.83;5.20;;;;;;;16.42;100.00;96607.03;5086505;28;20205;-82
2022/11/01 07:36:27;;;;;;;7.27;4.20;;;;;;;16.40;100.00;96608.41;5080989;28;20209;-82
2022/11/01 07:38:54;;;;;;;8.87;4.10;;;;;;;16.38;100.00;96605.94;5074190;28;20300;-82
2022/11/01 07:41:21;;;;;;;11.33;4.07;;;;;;;16.40;100.00;96608.41;5080810;28;20193;-82
2022/11/01 07:43:48;;;;;;;5.60;3.70;;;;;;;16.27;100.00;96594.13;5086338;28;20261;-82
2022/11/01 07:46:15;;;;;;;8.23;4.20;;;;;;;16.39;100.00;96607.56;5084702;28;20203;-82
2022/11/01 07:48:44;;;;;;;7.40;3.67;;;;;;;16.37;100.00;96585.19;5085988;28;20216;-82
2022/11/01 07:51:10;;;;;;;6.70;3.60;;;;;;;16.47;100.00;96577.09;5085592;28;20213;-83
2022/11/01 07:53:37;;;;;;;8.13;3.63;;;;;;;16.49;100.00;96576.84;5087340;28;20213;-82
2022/11/01 07:56:06;;;;;;;9.80;3.73;;;;;;;16.60;100.00;96584.81;5077063;28;20196;-82
2022/11/01 07:58:34;;;;;;;8.87;3.87;;;;;;;16.64;100.00;96590.59;5105035;28;20252;-83
2022/11/01 08:01:01;;;;;;;12.13;3.60;;;;;;;16.65;100.00;96586.81;5083048;28;20209;-82
2022/11/01 08:03:29;;;;;;;11.63;4.20;;;;;;;16.58;100.00;96578.81;5085781;28;20212;-83
2022/11/01 08:05:58;;;;;;;7.17;3.97;;;;;;;16.65;100.00;96573.16;5087729;28;20269;-82
2022/11/01 08:08:25;;;;;;;11.23;4.17;;;;;;;16.78;100.00;96588.22;5087797;28;20222;-82
2022/11/01 08:10:51;;;;;;;7.77;3.97;;;;;;;16.87;100.00;96592.09;5072264;28;20222;-82
2022/11/01 08:13:20;;;;;;;10.77;4.47;;;;;;;16.90;100.00;96589.69;5089889;28;20205;-82
2022/11/01 08:15:49;;;;;;;14.60;4.43;;;;;;;16.85;100.00;96580.63;5084015;28;20197;-83
2022/11/01 08:18:20;;;;;;;11.23;5.60;;;;;;;16.92;100.00;96578.50;5083913;28;20201;-82
2022/11/01 08:20:47;;;;;;;8.80;4.40;;;;;;;17.04;100.00;96598.19;5079901;28;20294;-82
2022/11/01 08:23:17;;;;;;;7.07;4.63;;;;;;;17.01;100.00;96577.72;5082657;28;20208;-83
2022/11/01 08:25:44;;;;;;;13.40;4.20;;;;;;;17.21;99.20;96598.81;5086849;28;20202;-83
2022/11/01 08:28:13;;;;;;;10.00;4.30;;;;;;;17.27;99.40;96605.94;5082797;28;20201;-83
2022/11/01 08:30:41;;;;;;;7.30;4.10;;;;;;;17.23;100.00;96591.22;5083620;28;20319;-82
2022/11/01 08:33:09;;;;;;;8.33;3.50;;;;;;;17.37;99.54;96586.88;5078638;28;20208;-82
2022/11/01 08:35:36;;;;;;;6.73;3.60;;;;;;;17.37;100.00;96586.88;5083609;28;20236;-82
2022/11/01 08:38:04;;;;;;;6.43;3.67;;;;;;;17.43;99.51;96600.56;5082920;28;20203;-82
2022/11/01 08:40:35;;;;;;;8.60;3.63;;;;;;;17.27;99.43;96592.28;5089118;28;20200;-82
2022/11/01 08:43:03;;;;;;;8.17;4.20;;;;;;;17.29;100.00;96605.69;5083314;28;20209;-82
2022/11/01 08:45:33;;;;;;;7.93;3.60;;;;;;;17.27;100.00;96607.84;5080382;28;20202;-82
2022/11/01 08:48:02;;;;;;;7.57;3.50;;;;;;;17.19;100.00;96603.72;5101338;28;20309;-83
2022/11/01 08:50:29;;;;;;;7.97;3.73;;;;;;;17.26;100.00;96608.97;5077115;28;20218;-82
2022/11/01 08:52:56;;;;;;;6.33;3.90;;;;;;;17.27;100.00;96616.84;5086170;28;20197;-82
2022/11/01 08:55:23;;;;;;;9.17;3.30;;;;;;;17.31;100.00;96619.88;5089145;28;20207;-82
2022/11/01 08:57:52;;;;;;;8.40;3.40;;;;;;;17.24;100.00;96613.84;5084160;28;20212;-82
2022/11/01 09:00:20;;;;;;;7.30;3.60;;;;;;;17.29;99.73;96611.13;5084782;28;20216;-82
2022/11/01 09:02:48;;;;;;;7.90;3.53;;;;;;;17.29;100.00;96606.50;5086628;28;20205;-82
2022/11/01 09:05:16;;;;;;;5.63;3.20;;;;;;;17.29;100.00;96617.41;5083979;28;20209;-83
2022/11/01 09:07:43;;;;;;;8.17;3.73;;;;;;;17.35;100.00;96627.28;5086973;28;20289;-83
2022/11/01 09:10:11;;;;;;;7.20;4.03;;;;;;;17.38;100.00;96629.47;5077751;28;20193;-83
2022/11/01 09:12:40;;;;;;;7.20;3.63;;;;;;;17.41;100.00;96633.59;5078357;28;20505;-84
2022/11/01 09:15:10;;;;;;;7.77;3.47;;;;;;;17.32;100.00;96632.47;5088658;28;20220;-83
2022/11/01 09:17:38;;;;;;;10.00;3.73;;;;;;;17.28;100.00;96653.97;5086101;28;20206;-83
2022/11/01 09:20:08;;;;;;;11.17;5.90;;;;;;;17.17;100.00;96635.94;5086749;28;20232;-83
2022/11/01 09:22:37;;;;;;;7.27;4.30;;;;;;;17.23;100.00;96651.25;5082708;28;20201;-83
2022/11/01 09:25:04;;;;;;;14.83;3.90;;;;;;;17.26;100.00;96638.97;5083684;28;20439;-84
2022/11/01 09:27:32;;;;;;;11.03;5.10;;;;;;;17.20;100.00;96649.03;5088325;28;20209;-83
2022/11/01 09:29:59;;;;;;;13.73;7.23;;;;;;;17.12;100.00;96644.09;5088353;28;20204;-83
2022/11/01 09:32:29;;;;;;;10.83;5.03;;;;;;;17.10;100.00;96643.50;5078585;28;20244;-83
2022/11/01 09:34:56;;;;;;;10.63;6.00;;;;;;;17.10;100.00;96657.16;5078159;28;20245;-83
2022/11/01 09:37:23;;;;;;;8.43;3.73;;;;;;;17.12;100.00;96654.16;5087656;28;20200;-83
2022/11/01 09:39:50;;;;;;;7.97;3.73;;;;;;;17.11;100.00;96653.34;5087994;28;20268;-83
2022/11/01 09:42:26;;;;;;;7.47;3.80;;;;;;;17.13;100.00;96655.81;5085911;28;20204;-84
2022/11/01 09:44:59;;;;;;;7.17;4.13;;;;;;;17.06;100.00;96658.78;5087922;28;20283;-83
2022/11/01 09:47:30;;;;;;;7.97;3.27;;;;;;;17.13;100.00;96658.53;5088878;28;20232;-83
2022/11/01 09:50:04;;;;;;;8.70;4.00;;;;;;;17.05;100.00;96653.59;5085674;28;20200;-84
2022/11/01 09:52:34;;;;;;;9.47;5.80;;;;;;;17.12;100.00;96665.09;5090192;28;20209;-83
2022/11/01 09:55:01;;;;;;;7.07;3.90;;;;;;;16.98;100.00;96653.81;5080038;28;20275;-84
2022/11/01 09:57:35;;;;;;;7.73;3.70;;;;;;;17.07;100.00;96663.16;5084463;28;20223;-83
2022/11/01 10:00:07;;;;;;;6.07;4.00;;;;;;;17.09;100.00;96661.00;5089712;28;20246;-84
2022/11/01 10:03:03;;;;;;;10.00;3.60;;;;;;;17.05;100.00;96659.88;5087197;28;20193;-83
2022/11/01 10:05:44;;;;;;;10.03;3.87;;;;;;;17.11;100.00;96672.44;5086706;28;20259;-83
2022/11/01 10:08:22;;;;;;;7.00;3.87;;;;;;;17.11;100.00;96675.19;5090534;28;20204;-84
2022/11/01 10:11:00;;;;;;;10.10;3.73;;;;;;;17.06;100.00;96666.97;5086838;28;20232;-83
2022/11/01 10:13:39;;;;;;;8.83;4.03;;;;;;;17.09;100.00;96671.09;5076889;28;20208;-84
2022/11/01 10:16:14;;;;;;;10.20;4.70;;;;;;;17.08;100.00;96674.91;5092742;28;20209;-83
2022/11/01 10:18:49;;;;;;;8.77;4.27;;;;;;;17.09;100.00;96669.19;5086566;28;20221;-83
2022/11/01 10:21:20;;;;;;;6.47;3.40;;;;;;;17.03;100.00;96664.75;5091378;28;20206;-83
2022/11/01 10:23:50;;;;;;;8.33;3.87;;;;;;;17.07;100.00;96668.63;5094453;28;20210;-84
2022/11/01 10:26:22;;;;;;;9.30;3.93;;;;;;;17.14;100.00;96679.28;5089683;28;20306;-83
2022/11/01 10:28:56;;;;;;;6.13;4.03;;;;;;;17.08;100.00;96666.72;5084176;28;20212;-83
2022/11/01 10:31:27;;;;;;;5.47;3.60;;;;;;;17.08;100.00;96653.91;5087039;28;20323;-84
2022/11/01 10:34:00;;;;;;;9.43;3.97;;;;;;;17.22;100.00;96668.69;5081454;28;20233;-83
2022/11/01 10:36:32;;;;;;;10.67;4.10;;;;;;;17.31;100.00;96669.84;5089318;28;20299;-83
2022/11/01 10:39:14;;;;;;;9.17;3.67;;;;;;;17.26;100.00;96661.63;5097813;28;20212;-84
2022/11/01 10:41:47;;;;;;;7.87;3.47;;;;;;;17.32;100.00;96657.84;5084725;28;20197;-83
2022/11/01 10:44:23;;;;;;;8.37;3.97;;;;;;;17.35;100.00;96670.94;5089606;28;20209;-84
2022/11/01 10:46:52;;;;;;;8.93;4.10;;;;;;;17.37;100.00;96674.22;5102642;28;20204;-83
2022/11/01 10:49:25;;;;;;;8.37;3.80;;;;;;;17.32;100.00;96668.75;5087004;28;20341;-83
2022/11/01 10:51:58;;;;;;;6.23;3.50;;;;;;;17.29;100.00;96655.63;5086593;28;20232;-83
2022/11/01 10:54:29;;;;;;;5.80;4.00;;;;;;;17.25;100.00;96660.00;5079604;28;20196;-83
2022/11/01 10:57:00;;;;;;;8.23;3.87;;;;;;;17.29;100.00;96660.25;5078495;28;20205;-83
2022/11/01 10:59:35;;;;;;;6.83;4.33;;;;;;;17.30;100.00;96656.47;5084272;28;20196;-83
2022/11/01 11:02:13;;;;;;;10.10;4.33;;;;;;;17.24;100.00;96658.34;5102178;27;20238;-83
2022/11/01 11:04:42;;;;;;;8.77;4.20;;;;;;;17.26;100.00;96655.34;5110057;27;20258;-84
2022/11/01 11:07:13;;;;;;;7.17;3.83;;;;;;;17.09;100.00;96650.09;5091275;28;20201;-83
2022/11/01 11:09:40;;;;;;;8.33;4.33;;;;;;;17.13;100.00;96661.28;5091248;28;20235;-84
2022/11/01 11:12:12;;;;;;;6.83;4.33;;;;;;;17.07;100.00;96663.16;5087747;28;20309;-84
2022/11/01 11:14:41;;;;;;;9.10;4.13;;;;;;;17.11;100.00;96667.00;5088455;28;20210;-83
2022/11/01 11:17:17;;;;;;;5.63;3.73;;;;;;;17.20;100.00;96670.88;5089035;28;20446;-84
2022/11/01 11:19:48;;;;;;;8.30;4.10;;;;;;;17.14;100.00;96669.19;5100423;27;20220;-84
2022/11/01 11:22:15;;;;;;;8.73;4.07;;;;;;;17.13;100.00;96674.91;5081814;28;20219;-83
2022/11/01 11:24:44;;;;;;;7.50;3.67;;;;;;;17.16;100.00;96672.50;5085696;28;20200;-83
2022/11/01 11:27:18;;;;;;;8.63;4.13;;;;;;;17.19;100.00;96673.84;5082274;28;20225;-84
2022/11/01 11:29:48;;;;;;;9.60;4.10;;;;;;;17.25;100.00;96683.72;5076871;28;20219;-83
2022/11/01 11:32:18;;;;;;;7.17;4.00;;;;;;;17.23;100.00;96672.25;5089611;28;20274;-84
2022/11/01 11:34:55;;;;;;;6.27;3.90;;;;;;;17.26;100.00;96669.00;5090532;28;20240;-83
2022/11/01 11:37:24;;;;;;;7.60;3.60;;;;;;;17.22;100.00;96665.97;5089565;28;20208;-84
2022/11/01 11:40:08;;;;;;;8.07;4.23;;;;;;;17.36;100.00;96672.59;5086892;28;20229;-83
2022/11/01 11:42:36;;;;;;;7.50;4.43;;;;;;;17.46;100.00;96666.34;5082445;28;20276;-83
2022/11/01 11:45:22;;;;;;;7.03;3.93;;;;;;;17.60;100.00;96674.91;5086340;28;20202;-83
2022/11/01 11:47:50;;;;;;;6.63;4.10;;;;;;;17.64;100.00;96679.59;5087764;28;20232;-84